createdAt,value
2022-11-26T00:03:29.297Z,295.09
2022-11-26T00:08:36.466Z,296.42
2022-11-26T00:13:43.664Z,295.82
2022-11-26T00:18:50.855Z,295.24
2022-11-26T00:23:58.093Z,294.45
2022-11-26T00:29:05.267Z,294.81
2022-11-26T00:34:12.534Z,294.57
2022-11-26T00:39:19.702Z,294.39
2022-11-26T00:44:26.930Z,293.47
2022-11-26T00:49:34.128Z,293.27
2022-11-26T00:54:41.316Z,293.17
2022-11-26T00:59:48.429Z,293.08
2022-11-26T01:04:55.705Z,292.66
2022-11-26T01:10:02.941Z,293.23
2022-11-26T01:15:10.128Z,292.18
2022-11-26T01:20:19.553Z,292.43
2022-11-26T01:25:24.581Z,291.92
2022-11-26T01:30:31.774Z,291.75
2022-11-26T01:35:39.026Z,292.38
2022-11-26T01:40:46.267Z,292.12
2022-11-26T01:45:53.530Z,291.29
2022-11-26T01:51:00.726Z,291.08
2022-11-26T01:56:08.027Z,290.44
2022-11-26T02:01:15.488Z,290.17
2022-11-26T02:06:22.617Z,289.35
2022-11-26T02:11:29.851Z,288.41
2022-11-26T02:16:37.097Z,287.42
2022-11-26T02:21:44.302Z,287.18
2022-11-26T02:26:51.559Z,287.25
2022-11-26T02:31:58.856Z,286.55
2022-11-26T02:37:06.064Z,286.21
2022-11-26T02:42:13.401Z,285.37
2022-11-26T02:47:20.725Z,285.32
2022-11-26T02:52:27.925Z,284.96
2022-11-26T02:57:35.157Z,284.20
2022-11-26T03:02:42.337Z,284.16
2022-11-26T03:07:49.654Z,283.85
2022-11-26T03:12:56.770Z,283.19
2022-11-26T03:18:04.010Z,282.25
2022-11-26T03:23:11.273Z,282.05
2022-11-26T03:28:18.516Z,281.77
2022-11-26T03:33:25.728Z,281.82
2022-11-26T03:38:33.076Z,282.04
2022-11-26T03:43:40.316Z,281.30
2022-11-26T03:48:47.489Z,280.76
2022-11-26T03:53:54.709Z,280.22
2022-11-26T03:59:01.993Z,279.96
2022-11-26T04:04:09.205Z,279.75
2022-11-26T04:09:16.416Z,277.82
2022-11-26T04:14:23.707Z,277.34
2022-11-26T04:19:30.818Z,277.16
2022-11-26T04:24:38.297Z,276.45
2022-11-26T04:29:45.257Z,275.50
2022-11-26T04:34:52.453Z,274.93
2022-11-26T04:39:59.648Z,275.57
2022-11-26T04:45:06.909Z,276.04
2022-11-26T04:50:14.755Z,276.43
2022-11-26T04:55:21.986Z,276.80
2022-11-26T05:00:29.226Z,276.64
2022-11-26T05:05:36.385Z,276.93
2022-11-26T05:10:43.575Z,276.09
2022-11-26T05:15:50.828Z,275.27
2022-11-26T05:20:58.033Z,275.53
2022-11-26T05:26:05.222Z,275.55
2022-11-26T05:31:12.573Z,274.80
2022-11-26T05:36:19.831Z,274.49
2022-11-26T05:41:27.016Z,274.13
2022-11-26T05:46:34.249Z,274.19
2022-11-26T05:51:41.426Z,273.93
2022-11-26T05:56:48.621Z,273.37
2022-11-26T06:01:55.934Z,272.91
2022-11-26T06:07:03.089Z,272.50
2022-11-26T06:12:10.252Z,271.94
2022-11-26T06:17:17.478Z,271.64
2022-11-26T06:22:24.651Z,271.94
2022-11-26T06:27:31.849Z,271.39
2022-11-26T06:32:39.063Z,271.19
2022-11-26T06:37:46.226Z,271.39
2022-11-26T06:42:53.499Z,270.94
2022-11-26T06:48:00.730Z,270.90
2022-11-26T06:53:07.927Z,270.09
2022-11-26T06:58:15.233Z,269.26
2022-11-26T07:03:25.465Z,268.93
2022-11-26T07:08:29.740Z,268.54
2022-11-26T07:13:37.770Z,268.56
2022-11-26T07:18:44.956Z,268.29
2022-11-26T07:23:52.162Z,268.16
2022-11-26T07:28:59.380Z,267.91
2022-11-26T07:34:06.733Z,268.04
2022-11-26T07:39:13.861Z,267.94
2022-11-26T07:44:21.082Z,267.70
2022-11-26T07:49:28.292Z,266.56
2022-11-26T07:54:35.879Z,265.91
2022-11-26T07:59:42.746Z,265.89
2022-11-26T08:04:50.021Z,265.63
2022-11-26T08:09:57.213Z,264.68
2022-11-26T08:15:04.422Z,264.77
2022-11-26T08:20:13.036Z,263.51
2022-11-26T08:25:20.235Z,262.88
2022-11-26T08:30:27.452Z,262.48
2022-11-26T08:36:04.869Z,262.53
2022-11-26T08:40:41.872Z,262.95
2022-11-26T08:45:49.389Z,262.38
2022-11-26T08:50:56.620Z,262.31
2022-11-26T08:56:03.858Z,262.39
2022-11-26T09:01:11.157Z,262.48
2022-11-26T09:06:18.317Z,263.10
2022-11-26T09:11:25.545Z,263.30
2022-11-26T09:16:32.805Z,263.45
2022-11-26T09:21:40.528Z,263.02
2022-11-26T09:26:47.683Z,263.65
2022-11-26T09:32:22.072Z,264.42
2022-11-26T09:37:02.144Z,263.51
2022-11-26T09:42:09.318Z,263.22
2022-11-26T09:47:16.476Z,262.96
2022-11-26T09:52:23.762Z,262.40
2022-11-26T09:57:30.972Z,262.02
2022-11-26T10:02:38.320Z,261.70
2022-11-26T10:07:45.613Z,261.92
2022-11-26T10:13:17.481Z,262.55
2022-11-26T10:17:59.919Z,262.61
2022-11-26T10:23:07.155Z,262.85
2022-11-26T10:28:14.379Z,262.39
2022-11-26T10:33:21.570Z,263.11
2022-11-26T10:38:28.801Z,263.58
2022-11-26T10:43:36.025Z,263.65
2022-11-26T10:48:43.188Z,264.02
2022-11-26T10:53:50.438Z,264.78
2022-11-26T10:58:57.612Z,265.22
2022-11-26T11:04:08.957Z,265.31
2022-11-26T11:09:11.993Z,265.50
2022-11-26T11:14:19.207Z,265.77
2022-11-26T11:19:26.359Z,266.47
2022-11-26T11:24:33.543Z,266.06
2022-11-26T11:29:40.961Z,266.48
2022-11-26T11:34:48.232Z,266.55
2022-11-26T11:39:55.460Z,266.49
2022-11-26T11:45:02.618Z,266.79
2022-11-26T11:50:09.861Z,266.58
2022-11-26T11:55:17.063Z,266.62
2022-11-26T12:00:24.225Z,266.01
2022-11-26T12:05:31.506Z,266.42
2022-11-26T12:10:38.712Z,267.03
2022-11-26T12:15:45.907Z,267.18
2022-11-26T12:20:53.111Z,267.50
2022-11-26T12:26:00.299Z,267.63
2022-11-26T12:31:07.543Z,267.47
2022-11-26T12:36:14.717Z,267.42
2022-11-26T12:41:21.917Z,267.81
2022-11-26T12:46:29.401Z,268.26
2022-11-26T12:51:36.609Z,268.82
2022-11-26T12:56:43.849Z,268.24
2022-11-26T13:01:51.054Z,268.61
2022-11-26T13:06:58.168Z,267.48
2022-11-26T13:12:05.364Z,267.32
2022-11-26T13:17:12.574Z,267.06
2022-11-26T13:22:19.824Z,267.17
2022-11-26T13:27:26.999Z,267.28
2022-11-26T13:32:34.150Z,267.53
2022-11-26T13:37:41.359Z,268.56
2022-11-26T13:42:48.561Z,269.06
2022-11-26T13:47:55.762Z,269.53
2022-11-26T13:53:03.023Z,269.02
2022-11-26T13:58:10.219Z,269.64
2022-11-26T14:03:17.575Z,269.60
2022-11-26T14:08:24.822Z,270.39
2022-11-26T14:13:32.075Z,270.29
2022-11-26T14:18:39.389Z,270.42
2022-11-26T14:23:46.647Z,270.46
2022-11-26T14:28:53.854Z,270.51
2022-11-26T14:34:01.009Z,270.69
2022-11-26T14:39:08.200Z,270.01
2022-11-26T14:44:15.410Z,270.11
2022-11-26T14:49:22.591Z,270.06
2022-11-26T14:54:29.794Z,269.82
2022-11-26T14:59:37.065Z,270.26
2022-11-26T15:04:44.249Z,270.25
2022-11-26T15:09:51.497Z,270.73
2022-11-26T15:14:58.730Z,271.76
2022-11-26T15:20:05.974Z,272.04
2022-11-26T15:25:13.191Z,272.48
2022-11-26T15:30:20.391Z,272.92
2022-11-26T15:35:27.612Z,272.82
2022-11-26T15:40:34.846Z,272.05
2022-11-26T15:45:42.164Z,273.08
2022-11-26T15:50:49.295Z,273.57
2022-11-26T15:55:56.500Z,272.91
2022-11-26T16:01:03.844Z,272.83
2022-11-26T16:06:10.901Z,272.95
2022-11-26T16:11:18.141Z,272.98
2022-11-26T16:16:25.748Z,272.73
2022-11-26T16:21:32.923Z,272.78
2022-11-26T16:26:40.441Z,273.30
2022-11-26T16:31:47.794Z,273.65
2022-11-26T16:36:54.974Z,273.25
2022-11-26T16:42:02.360Z,273.93
2022-11-26T16:47:10.001Z,273.46
2022-11-26T16:52:17.354Z,273.42
2022-11-26T16:57:24.793Z,273.31
2022-11-26T17:02:32.275Z,272.63
2022-11-26T17:07:39.424Z,272.87
2022-11-26T17:12:46.827Z,272.00
2022-11-26T17:17:54.561Z,272.01
2022-11-26T17:23:01.912Z,271.90
2022-11-26T17:28:09.150Z,271.82
2022-11-26T17:33:16.694Z,272.04
2022-11-26T17:38:24.211Z,272.23
2022-11-26T17:43:31.508Z,272.61
2022-11-26T17:48:38.823Z,272.69
2022-11-26T17:53:45.965Z,272.79
2022-11-26T17:58:53.149Z,272.26
2022-11-26T18:04:00.435Z,272.34
2022-11-26T18:09:07.601Z,272.02
2022-11-26T18:14:14.842Z,271.92
2022-11-26T18:19:22.183Z,271.49
2022-11-26T18:24:29.628Z,271.43
2022-11-26T18:29:37.337Z,271.39
2022-11-26T18:34:44.251Z,270.53
2022-11-26T18:39:51.757Z,269.95
2022-11-26T18:44:59.126Z,269.12
2022-11-26T18:50:06.392Z,269.17
2022-11-26T18:55:13.885Z,268.84
2022-11-26T19:00:21.503Z,268.78
2022-11-26T19:05:30.591Z,268.57
2022-11-26T19:10:38.159Z,269.10
2022-11-26T19:15:45.553Z,269.53
2022-11-26T19:20:53.126Z,270.05
2022-11-26T19:26:00.798Z,269.79
2022-11-26T19:31:08.448Z,270.15
2022-11-26T19:36:16.983Z,270.01
2022-11-26T19:41:25.989Z,270.01
2022-11-26T19:46:32.249Z,270.89
2022-11-26T19:51:40.376Z,270.86
2022-11-26T19:56:47.714Z,271.37
2022-11-26T20:01:55.433Z,271.87
2022-11-26T20:07:02.968Z,271.62
2022-11-26T20:12:10.559Z,272.41
2022-11-26T20:17:18.325Z,273.09
2022-11-26T20:22:28.117Z,273.60
2022-11-26T20:27:33.504Z,273.89
2022-11-26T20:32:41.227Z,273.24
2022-11-26T20:37:48.869Z,273.79
2022-11-26T20:42:56.345Z,273.72
2022-11-26T20:48:03.959Z,274.15
2022-11-26T20:53:11.607Z,274.25
2022-11-26T20:58:19.195Z,274.48
2022-11-26T21:03:26.562Z,274.00
2022-11-26T21:08:33.766Z,274.63
2022-11-26T21:13:40.902Z,274.91
2022-11-26T21:18:48.049Z,275.52
2022-11-26T21:23:55.547Z,276.82
2022-11-26T21:29:03.030Z,276.88
2022-11-26T21:34:10.364Z,277.59
2022-11-26T21:39:17.586Z,277.66
2022-11-26T21:44:25.492Z,278.05
2022-11-26T21:49:32.576Z,277.40
2022-11-26T21:54:39.792Z,276.88
2022-11-26T21:59:47.174Z,277.59
2022-11-26T22:04:54.441Z,277.93
2022-11-26T22:10:04.630Z,278.66
2022-11-26T22:15:11.767Z,278.54
2022-11-26T22:20:19.017Z,278.55
2022-11-26T22:25:26.278Z,277.52
2022-11-26T22:30:33.488Z,277.56
2022-11-26T22:35:40.690Z,277.72
2022-11-26T22:40:47.962Z,276.77
2022-11-26T22:45:55.257Z,275.61
2022-11-26T22:51:02.430Z,275.05
2022-11-26T22:56:09.641Z,275.21
2022-11-26T23:01:17.543Z,275.22
2022-11-26T23:06:24.734Z,275.49
2022-11-26T23:11:32.106Z,276.35
2022-11-26T23:16:39.364Z,276.65
2022-11-26T23:21:46.452Z,277.11
2022-11-26T23:26:53.623Z,277.42
2022-11-26T23:32:00.901Z,277.74
2022-11-26T23:37:08.072Z,277.64
2022-11-26T23:42:15.315Z,276.93
2022-11-26T23:47:22.505Z,277.26
2022-11-26T23:52:29.703Z,276.90
2022-11-26T23:57:36.915Z,277.10
